Terminal Aerodrome Forecast
Issued by NWS Rapid City, SD

Home | Current Version | Previous Version | Text Only | Print | Product List | Glossary On
Versions: 1 2 3 4 5 6 7 8 9 10 11 12 13 14
000
FTUS43 KUNR 050818 AAA
TAFRAP
TAF AMD
KRAP 050818Z 0508/0606 VRB05KT P6SM SCT100 BKN150
      TEMPO 0509/0512 -SHRA BKN080
     FM051500 16012KT P6SM SCT150=

USA.gov is the U.S. government's official web portal to all federal, state and local government web resources and services.